Time;durP1;ratioP1;P1;durP2;ratioP2;P2;SDS_P1;SDS_P2;PMS_P1;PMS_P2;Temp;Humidity;BMP_temperature;BMP_pressure;BME280_temperature;BME280_humidity;BME280_pressure;Samples;Min_cycle;Max_cycle;Signal;HPM_P1;HPM_P2
2022/08/01 00:00:32;;;;;;;0.70;0.67;;;17.50;93.90;;;;;;5075342;28;20410;-66
2022/08/01 00:02:58;;;;;;;0.60;0.60;;;17.60;94.30;;;;;;5093361;28;20659;-66
2022/08/01 00:05:23;;;;;;;0.60;0.60;;;17.60;94.40;;;;;;5093328;28;20191;-66
2022/08/01 00:07:49;;;;;;;0.50;0.50;;;17.60;94.50;;;;;;5093240;28;20200;-66
2022/08/01 00:10:16;;;;;;;0.70;0.70;;;17.60;94.40;;;;;;5093524;28;20165;-66
2022/08/01 00:12:43;;;;;;;0.50;0.50;;;17.50;94.40;;;;;;5093397;28;20196;-65
2022/08/01 00:15:12;;;;;;;0.40;0.40;;;17.60;94.40;;;;;;5093194;28;20507;-65
2022/08/01 00:17:38;;;;;;;1.13;1.13;;;17.50;94.30;;;;;;5093169;28;20514;-65
2022/08/01 00:20:05;;;;;;;0.40;0.40;;;17.50;94.70;;;;;;5093429;28;20866;-66
2022/08/01 00:22:31;;;;;;;0.40;0.40;;;17.50;94.60;;;;;;5094174;28;20410;-65
2022/08/01 00:24:57;;;;;;;0.50;0.40;;;17.50;94.70;;;;;;5093148;28;20479;-65
2022/08/01 00:27:23;;;;;;;3.43;0.80;;;17.50;94.80;;;;;;5093141;28;20845;-65
2022/08/01 00:29:48;;;;;;;0.40;0.40;;;17.50;94.60;;;;;;5093115;28;20238;-66
2022/08/01 00:32:14;;;;;;;0.60;0.60;;;17.40;94.50;;;;;;5095877;28;20169;-65
2022/08/01 00:34:39;;;;;;;0.83;0.83;;;17.40;94.70;;;;;;5097215;28;20181;-66
2022/08/01 00:37:05;;;;;;;0.60;0.60;;;17.40;94.90;;;;;;5097021;28;20184;-65
2022/08/01 00:39:32;;;;;;;0.50;0.50;;;17.40;94.70;;;;;;5096834;28;20698;-66
2022/08/01 00:41:58;;;;;;;0.50;0.50;;;17.40;94.80;;;;;;5097084;28;20165;-66
2022/08/01 00:44:24;;;;;;;0.60;0.60;;;17.40;94.80;;;;;;5096864;28;20427;-66
2022/08/01 00:46:50;;;;;;;0.43;0.43;;;17.30;95.00;;;;;;5096803;28;20450;-66
2022/08/01 00:49:16;;;;;;;0.70;0.60;;;17.20;95.30;;;;;;5096574;28;20168;-66
2022/08/01 00:51:42;;;;;;;0.70;0.40;;;17.30;95.20;;;;;;5096895;28;20172;-65
2022/08/01 00:54:08;;;;;;;0.40;0.40;;;17.20;95.50;;;;;;5096612;28;20508;-66
2022/08/01 00:56:33;;;;;;;0.60;0.60;;;17.20;95.70;;;;;;5096741;28;20552;-65
2022/08/01 00:58:59;;;;;;;0.50;0.50;;;17.20;95.70;;;;;;5096605;28;20746;-65
2022/08/01 01:01:25;;;;;;;0.53;0.53;;;17.10;95.60;;;;;;5096797;28;20165;-65
2022/08/01 01:03:52;;;;;;;0.30;0.30;;;17.20;95.80;;;;;;5096222;28;20275;-65
2022/08/01 01:06:30;;;;;;;0.40;0.40;;;17.20;96.00;;;;;;5096793;28;20204;-65
2022/08/01 01:09:23;;;;;;;0.97;0.60;;;17.20;95.90;;;;;;5096350;28;20427;-66
2022/08/01 01:11:53;;;;;;;0.40;0.40;;;17.20;95.90;;;;;;5096571;28;20735;-65
2022/08/01 01:14:31;;;;;;;0.60;0.57;;;17.10;95.70;;;;;;5096493;28;20895;-66
2022/08/01 01:16:58;;;;;;;0.70;0.70;;;17.10;95.70;;;;;;5096716;28;20406;-65
2022/08/01 01:19:30;;;;;;;0.43;0.43;;;17.10;96.10;;;;;;5096120;28;20443;-66
2022/08/01 01:22:18;;;;;;;1.37;0.73;;;17.10;96.20;;;;;;5096389;28;20391;-66
2022/08/01 01:25:09;;;;;;;0.40;0.40;;;17.00;96.50;;;;;;5096095;28;20453;-65
2022/08/01 01:28:10;;;;;;;0.77;0.77;;;17.00;96.50;;;;;;5095804;28;20438;-65
2022/08/01 01:30:40;;;;;;;0.40;0.40;;;17.00;96.50;;;;;;5096168;28;20485;-65
2022/08/01 01:33:10;;;;;;;0.50;0.50;;;16.90;96.50;;;;;;5096097;28;20494;-66
2022/08/01 01:35:41;;;;;;;1.53;0.60;;;16.90;96.70;;;;;;5096313;28;20478;-66
2022/08/01 01:38:41;;;;;;;0.40;0.40;;;16.90;96.60;;;;;;5095950;28;20464;-65
2022/08/01 01:41:08;;;;;;;0.93;0.53;;;17.00;96.30;;;;;;5085039;28;20465;-66
2022/08/01 01:43:36;;;;;;;0.70;0.70;;;17.00;96.10;;;;;;5094839;28;20450;-66
2022/08/01 01:46:03;;;;;;;0.57;0.43;;;16.90;96.40;;;;;;5095829;28;20407;-66
2022/08/01 01:48:29;;;;;;;0.50;0.50;;;16.90;96.10;;;;;;5095544;28;20493;-66
2022/08/01 01:50:56;;;;;;;2.83;1.03;;;16.90;96.10;;;;;;5095839;28;20415;-66
2022/08/01 01:53:23;;;;;;;0.97;0.97;;;16.80;96.40;;;;;;5095592;28;20412;-65
2022/08/01 01:55:51;;;;;;;0.60;0.60;;;16.80;96.60;;;;;;5095537;28;20786;-65
2022/08/01 01:58:19;;;;;;;0.83;0.83;;;16.80;96.30;;;;;;5095371;28;20414;-65
2022/08/01 02:00:48;;;;;;;0.40;0.40;;;16.80;96.50;;;;;;5095383;28;20884;-65
2022/08/01 02:03:15;;;;;;;0.40;0.40;;;16.70;96.60;;;;;;5095159;28;20765;-66
2022/08/01 02:05:42;;;;;;;0.50;0.50;;;16.60;96.80;;;;;;5095288;28;20836;-65
2022/08/01 02:08:11;;;;;;;0.40;0.40;;;16.60;96.90;;;;;;5095067;28;20456;-65
2022/08/01 02:10:38;;;;;;;0.40;0.40;;;16.70;96.90;;;;;;5095400;28;20745;-66
2022/08/01 02:13:06;;;;;;;0.63;0.63;;;16.70;97.00;;;;;;5095163;28;20399;-65
2022/08/01 02:15:38;;;;;;;0.40;0.40;;;16.60;97.50;;;;;;5095202;28;20423;-66
2022/08/01 02:18:05;;;;;;;0.50;0.50;;;16.50;97.20;;;;;;5095182;28;20413;-66
2022/08/01 02:20:36;;;;;;;0.67;0.67;;;16.50;97.60;;;;;;5095222;28;20447;-65
2022/08/01 02:23:10;;;;;;;0.83;0.83;;;16.40;97.70;;;;;;5095249;28;20410;-65
2022/08/01 02:25:44;;;;;;;1.00;1.00;;;16.40;97.80;;;;;;5095221;28;20388;-65
2022/08/01 02:28:29;;;;;;;0.70;0.50;;;16.30;97.80;;;;;;5094640;28;20461;-65
2022/08/01 02:31:00;;;;;;;0.40;0.40;;;16.20;98.10;;;;;;5095092;28;20792;-66
2022/08/01 02:33:38;;;;;;;0.60;0.60;;;16.10;98.00;;;;;;5094989;28;20398;-65
2022/08/01 02:36:05;;;;;;;0.90;0.90;;;16.10;97.70;;;;;;5094997;28;20484;-66
2022/08/01 02:38:34;;;;;;;0.60;0.50;;;16.10;97.80;;;;;;5094625;28;20430;-65
2022/08/01 02:41:08;;;;;;;1.13;1.13;;;16.00;98.00;;;;;;5094733;28;20820;-66
2022/08/01 02:43:40;;;;;;;0.60;0.60;;;16.00;98.00;;;;;;5094781;28;20422;-65
2022/08/01 02:46:11;;;;;;;0.60;0.60;;;15.90;98.20;;;;;;5094535;28;20411;-66
2022/08/01 02:48:40;;;;;;;1.00;0.90;;;15.80;98.50;;;;;;5094722;28;20400;-65
2022/08/01 02:51:07;;;;;;;0.43;0.43;;;15.80;98.60;;;;;;5094512;28;20391;-66
2022/08/01 02:53:36;;;;;;;0.40;0.40;;;15.80;98.60;;;;;;5094361;28;20420;-65
2022/08/01 02:56:08;;;;;;;1.87;0.83;;;15.90;98.70;;;;;;5094496;28;20963;-65
2022/08/01 02:58:36;;;;;;;0.73;0.73;;;15.90;98.50;;;;;;5094305;28;20446;-65
2022/08/01 03:01:06;;;;;;;1.30;1.13;;;15.80;98.40;;;;;;5094367;28;20402;-66
2022/08/01 03:03:33;;;;;;;0.60;0.50;;;15.80;98.70;;;;;;5094115;28;20948;-66
2022/08/01 03:06:00;;;;;;;1.33;1.30;;;15.80;98.60;;;;;;5094109;28;20410;-66
2022/08/01 03:08:28;;;;;;;1.27;1.10;;;15.80;98.50;;;;;;5094015;28;20422;-66
2022/08/01 03:10:56;;;;;;;0.93;0.70;;;15.80;98.60;;;;;;5094167;28;20895;-65
2022/08/01 03:13:22;;;;;;;1.20;1.10;;;15.80;98.70;;;;;;5094136;28;20403;-65
2022/08/01 03:15:50;;;;;;;0.70;0.70;;;15.80;98.80;;;;;;5094185;28;20440;-65
2022/08/01 03:18:17;;;;;;;1.00;1.00;;;15.70;98.80;;;;;;5094005;28;20403;-65
2022/08/01 03:20:44;;;;;;;1.27;1.17;;;15.60;99.10;;;;;;5094009;28;20395;-65
2022/08/01 03:23:12;;;;;;;3.67;1.33;;;15.60;99.00;;;;;;5093732;28;20441;-65
2022/08/01 03:25:43;;;;;;;2.20;1.10;;;15.60;98.90;;;;;;5093683;28;20415;-65
2022/08/01 03:28:11;;;;;;;0.77;0.77;;;15.60;99.20;;;;;;5075488;28;21010;-65
2022/08/01 03:30:38;;;;;;;0.60;0.60;;;15.50;99.10;;;;;;5093847;28;20394;-66
2022/08/01 03:33:04;;;;;;;0.93;0.83;;;15.50;99.10;;;;;;5094006;28;20456;-65
2022/08/01 03:35:34;;;;;;;0.90;0.90;;;15.50;99.20;;;;;;5093692;28;20915;-66
2022/08/01 03:38:02;;;;;;;0.53;0.53;;;15.50;99.30;;;;;;5093676;28;20644;-65
2022/08/01 03:40:43;;;;;;;1.40;1.30;;;15.40;99.40;;;;;;5093792;28;20402;-66
2022/08/01 03:43:36;;;;;;;1.23;0.80;;;15.50;99.70;;;;;;5091829;28;20414;-67
2022/08/01 03:46:07;;;;;;;0.60;0.50;;;15.60;99.90;;;;;;5092728;28;20451;-68
2022/08/01 03:48:39;;;;;;;1.37;1.13;;;16.30;99.90;;;;;;5092995;28;20405;-71
2022/08/01 03:51:07;;;;;;;1.07;0.40;;;16.90;99.10;;;;;;5091211;28;20700;-70
2022/08/01 03:53:34;;;;;;;1.60;1.07;;;17.50;97.70;;;;;;5092865;28;20418;-70
2022/08/01 03:56:02;;;;;;;0.50;0.50;;;18.10;97.00;;;;;;5093483;28;20394;-69
2022/08/01 03:58:29;;;;;;;0.50;0.50;;;18.50;95.70;;;;;;5092130;28;20880;-71
2022/08/01 04:00:55;;;;;;;0.60;0.60;;;18.80;94.60;;;;;;5093532;28;20463;-67
2022/08/01 04:03:21;;;;;;;0.50;0.50;;;19.00;93.10;;;;;;5091575;28;20458;-66
2022/08/01 04:05:47;;;;;;;0.50;0.50;;;18.70;92.80;;;;;;5093168;28;20830;-66
2022/08/01 04:08:13;;;;;;;0.70;0.70;;;18.00;93.20;;;;;;5097403;28;20545;-66
2022/08/01 04:10:38;;;;;;;0.70;0.70;;;17.40;94.30;;;;;;5097153;28;20176;-66
2022/08/01 04:13:04;;;;;;;2.40;0.83;;;17.10;95.30;;;;;;5097554;28;20169;-66
2022/08/01 04:15:30;;;;;;;1.30;1.20;;;16.70;95.90;;;;;;5097403;28;20192;-66
2022/08/01 04:17:56;;;;;;;0.37;0.37;;;16.40;96.30;;;;;;5097298;28;20253;-67
2022/08/01 04:20:21;;;;;;;0.90;0.87;;;16.20;97.00;;;;;;5079256;28;20454;-68
2022/08/01 04:22:47;;;;;;;0.50;0.50;;;16.00;97.60;;;;;;5096319;28;20200;-68
2022/08/01 04:25:19;;;;;;;1.50;1.40;;;15.90;98.00;;;;;;5096987;28;20538;-68
2022/08/01 04:27:49;;;;;;;0.40;0.40;;;15.90;98.10;;;;;;5095940;28;20595;-68
2022/08/01 04:30:16;;;;;;;0.70;0.70;;;15.80;98.40;;;;;;5095572;28;20463;-66
2022/08/01 04:32:44;;;;;;;1.33;1.13;;;15.70;98.70;;;;;;5095836;28;20818;-68
2022/08/01 04:35:16;;;;;;;0.80;0.80;;;15.70;99.00;;;;;;5095572;28;20503;-66
2022/08/01 04:37:45;;;;;;;1.30;1.20;;;15.60;99.00;;;;;;5096853;28;20421;-67
2022/08/01 04:40:12;;;;;;;1.10;0.73;;;15.60;99.10;;;;;;5097232;28;20410;-66
2022/08/01 04:42:38;;;;;;;0.80;0.80;;;15.50;99.20;;;;;;5095008;28;20420;-67
2022/08/01 04:45:04;;;;;;;2.30;1.63;;;15.50;99.30;;;;;;5096814;28;20837;-66
2022/08/01 04:47:31;;;;;;;1.47;1.47;;;15.50;99.50;;;;;;5094873;28;20458;-67
2022/08/01 04:49:56;;;;;;;0.90;0.90;;;15.50;99.60;;;;;;5096399;28;20866;-67
2022/08/01 04:52:22;;;;;;;0.93;0.93;;;15.50;99.80;;;;;;5097055;28;20530;-68
2022/08/01 04:54:48;;;;;;;0.90;0.90;;;15.60;99.90;;;;;;5095341;28;20192;-67
2022/08/01 04:57:14;;;;;;;0.50;0.50;;;15.60;99.80;;;;;;5096775;28;20912;-68
2022/08/01 04:59:43;;;;;;;0.80;0.50;;;15.70;99.90;;;;;;5096622;28;20259;-67
2022/08/01 05:02:18;;;;;;;0.80;0.80;;;15.90;99.80;;;;;;5094340;28;20479;-68
2022/08/01 05:04:45;;;;;;;1.53;1.43;;;16.30;99.60;;;;;;5096697;28;20452;-67
2022/08/01 05:07:12;;;;;;;1.80;0.80;;;16.60;98.80;;;;;;5095054;28;20531;-66
2022/08/01 05:09:41;;;;;;;1.37;0.93;;;17.00;98.10;;;;;;5094343;28;20443;-67
2022/08/01 05:12:07;;;;;;;0.60;0.60;;;17.40;97.60;;;;;;5095811;28;20755;-67
2022/08/01 05:14:33;;;;;;;0.77;0.77;;;17.90;96.50;;;;;;5095388;28;20935;-67
2022/08/01 05:17:02;;;;;;;1.13;1.10;;;18.30;95.70;;;;;;5077241;28;20410;-68
2022/08/01 05:19:32;;;;;;;0.87;0.87;;;18.50;95.00;;;;;;5095494;28;20411;-68
2022/08/01 05:22:00;;;;;;;1.33;0.77;;;18.70;94.80;;;;;;5096100;28;20970;-67
2022/08/01 05:24:28;;;;;;;0.70;0.70;;;18.70;94.40;;;;;;5094099;28;20477;-68
2022/08/01 05:26:57;;;;;;;1.10;1.00;;;18.90;93.80;;;;;;5094220;28;20462;-67
2022/08/01 05:29:23;;;;;;;0.60;0.60;;;19.30;93.80;;;;;;5093863;28;20493;-68
2022/08/01 05:31:49;;;;;;;0.93;0.93;;;19.70;93.10;;;;;;5094609;28;20406;-69
2022/08/01 05:34:14;;;;;;;0.50;0.40;;;20.30;92.00;;;;;;5095143;28;20428;-65
2022/08/01 05:36:40;;;;;;;0.80;0.80;;;20.90;91.40;;;;;;5094661;28;20175;-69
2022/08/01 05:39:06;;;;;;;0.93;0.80;;;21.30;90.30;;;;;;5095470;28;20175;-69
2022/08/01 05:41:32;;;;;;;1.00;0.90;;;21.50;89.80;;;;;;5095947;28;20583;-67
2022/08/01 05:43:57;;;;;;;0.97;0.80;;;21.60;88.50;;;;;;5095789;28;20254;-69
2022/08/01 05:46:23;;;;;;;0.80;0.80;;;21.60;88.90;;;;;;5095826;28;20171;-68
2022/08/01 05:48:49;;;;;;;1.27;0.80;;;21.80;88.60;;;;;;5095769;28;20170;-67
2022/08/01 05:51:14;;;;;;;0.67;0.60;;;21.80;87.90;;;;;;5096028;28;20165;-67
2022/08/01 05:53:40;;;;;;;1.03;1.03;;;21.70;87.60;;;;;;5095667;28;20212;-68
2022/08/01 05:56:06;;;;;;;2.20;0.90;;;21.50;88.60;;;;;;5095758;28;20526;-67
2022/08/01 05:58:31;;;;;;;0.70;0.70;;;21.40;89.60;;;;;;5095717;28;20170;-68
2022/08/01 06:00:58;;;;;;;0.70;0.47;;;21.30;89.90;;;;;;5077573;28;20177;-67
2022/08/01 06:03:24;;;;;;;0.53;0.53;;;21.20;90.00;;;;;;5095377;28;20212;-68
2022/08/01 06:05:51;;;;;;;0.53;0.53;;;21.10;90.10;;;;;;5095523;28;20408;-68
2022/08/01 06:08:17;;;;;;;0.50;0.50;;;21.10;89.70;;;;;;5095378;28;20791;-69
2022/08/01 06:10:43;;;;;;;1.17;1.07;;;21.10;89.60;;;;;;5095796;28;20403;-67
2022/08/01 06:13:08;;;;;;;1.10;1.10;;;21.20;89.00;;;;;;5095469;28;20679;-68
2022/08/01 06:15:34;;;;;;;1.07;0.70;;;21.40;89.30;;;;;;5095367;28;20692;-68
2022/08/01 06:18:00;;;;;;;0.50;0.50;;;21.70;89.80;;;;;;5095314;28;20313;-67
2022/08/01 06:20:25;;;;;;;1.43;1.27;;;22.00;88.60;;;;;;5095407;28;20174;-68
2022/08/01 06:22:51;;;;;;;0.83;0.70;;;22.40;86.40;;;;;;5095377;28;20533;-67
2022/08/01 06:25:18;;;;;;;0.50;0.50;;;22.80;87.30;;;;;;5095102;28;20686;-68
2022/08/01 06:27:44;;;;;;;0.63;0.63;;;23.10;86.50;;;;;;5094903;28;20558;-70
2022/08/01 06:30:10;;;;;;;1.67;0.57;;;23.40;85.80;;;;;;5094627;28;20402;-68
2022/08/01 06:32:36;;;;;;;0.60;0.60;;;23.50;84.90;;;;;;5095185;28;20733;-68
2022/08/01 06:35:02;;;;;;;0.80;0.80;;;23.50;83.40;;;;;;5095118;28;20440;-67
2022/08/01 06:37:32;;;;;;;0.60;0.60;;;23.70;82.30;;;;;;5095303;28;20930;-67
2022/08/01 06:40:07;;;;;;;0.80;0.80;;;23.70;82.10;;;;;;5094704;28;20410;-67
2022/08/01 06:42:37;;;;;;;1.03;0.90;;;23.80;83.20;;;;;;5076709;28;20902;-69
2022/08/01 06:45:09;;;;;;;0.40;0.40;;;23.80;84.50;;;;;;5094779;28;20401;-68
2022/08/01 06:47:36;;;;;;;0.60;0.60;;;24.00;83.10;;;;;;5094670;28;20488;-69
2022/08/01 06:50:04;;;;;;;0.77;0.57;;;24.40;82.40;;;;;;5094669;28;20403;-69
2022/08/01 06:52:29;;;;;;;0.40;0.40;;;25.70;80.90;;;;;;5094881;28;20403;-67
2022/08/01 06:54:55;;;;;;;1.43;0.97;;;27.20;75.70;;;;;;5094493;28;20438;-68
2022/08/01 06:57:20;;;;;;;1.03;1.03;;;28.80;70.40;;;;;;5094688;28;20545;-68
2022/08/01 06:59:46;;;;;;;0.67;0.60;;;29.60;65.10;;;;;;5094532;28;20201;-70
2022/08/01 07:02:12;;;;;;;0.50;0.50;;;29.80;61.80;;;;;;5076171;28;20177;-68
2022/08/01 07:04:37;;;;;;;0.70;0.70;;;29.60;59.90;;;;;;5094277;28;20208;-68
2022/08/01 07:07:03;;;;;;;0.80;0.80;;;29.50;57.70;;;;;;5094471;28;20555;-67
2022/08/01 07:09:29;;;;;;;0.43;0.43;;;29.00;57.40;;;;;;5094140;28;20181;-68
2022/08/01 07:11:55;;;;;;;0.87;0.60;;;28.80;59.10;;;;;;5094378;28;20625;-67
2022/08/01 07:14:21;;;;;;;1.00;0.90;;;28.80;58.00;;;;;;5094279;28;20427;-70
2022/08/01 07:16:47;;;;;;;0.50;0.50;;;28.80;57.00;;;;;;5094142;28;20498;-69
2022/08/01 07:19:13;;;;;;;1.60;0.93;;;28.70;57.30;;;;;;5094015;28;20918;-66
2022/08/01 07:21:39;;;;;;;0.80;0.70;;;28.30;56.60;;;;;;5094117;28;20178;-69
2022/08/01 07:24:07;;;;;;;0.50;0.47;;;28.00;58.50;;;;;;5094235;28;20510;-67
2022/08/01 07:26:32;;;;;;;0.87;0.60;;;28.10;58.00;;;;;;5094134;28;20811;-68
2022/08/01 07:28:59;;;;;;;0.60;0.50;;;28.50;56.70;;;;;;5093816;28;20407;-68
2022/08/01 07:31:24;;;;;;;1.13;1.13;;;29.00;55.40;;;;;;5094078;28;20259;-68
2022/08/01 07:33:50;;;;;;;0.47;0.47;;;29.50;54.70;;;;;;5094032;28;20465;-68
2022/08/01 07:36:17;;;;;;;0.70;0.70;;;30.20;52.90;;;;;;5093943;28;20169;-70
2022/08/01 07:38:43;;;;;;;0.60;0.50;;;30.80;52.00;;;;;;5093719;28;20742;-68
2022/08/01 07:41:08;;;;;;;0.57;0.40;;;31.50;50.20;;;;;;5092946;28;20884;-70
2022/08/01 07:43:35;;;;;;;1.07;1.07;;;32.30;48.20;;;;;;5093814;28;20430;-69
2022/08/01 07:46:04;;;;;;;0.77;0.50;;;32.90;46.80;;;;;;5093682;28;20161;-68
2022/08/01 07:48:30;;;;;;;0.60;0.60;;;33.40;46.60;;;;;;5093414;28;20927;-68
2022/08/01 07:50:56;;;;;;;0.60;0.60;;;34.80;44.40;;;;;;5093027;28;20411;-69
2022/08/01 07:53:22;;;;;;;0.50;0.50;;;36.00;42.10;;;;;;5093456;28;20173;-68
2022/08/01 07:55:48;;;;;;;0.50;0.50;;;37.00;40.40;;;;;;5093507;28;20180;-69
2022/08/01 07:58:14;;;;;;;0.80;0.80;;;37.10;38.90;;;;;;5091333;28;20263;-67
2022/08/01 08:00:39;;;;;;;0.73;0.73;;;37.20;38.30;;;;;;5094212;28;20173;-68
2022/08/01 08:03:05;;;;;;;0.70;0.70;;;37.50;38.00;;;;;;5093018;28;20427;-69
2022/08/01 08:05:34;;;;;;;0.53;0.53;;;37.90;36.50;;;;;;5092926;28;20211;-68
2022/08/01 08:08:07;;;;;;;0.93;0.70;;;37.50;36.00;;;;;;5093575;28;20257;-67
2022/08/01 08:10:33;;;;;;;0.70;0.57;;;37.20;37.10;;;;;;5093845;28;20413;-69
2022/08/01 08:12:58;;;;;;;0.53;0.53;;;36.90;36.60;;;;;;5094113;28;20744;-70
2022/08/01 08:15:24;;;;;;;1.77;1.30;;;36.70;36.50;;;;;;5093453;28;20431;-70
2022/08/01 08:17:50;;;;;;;0.77;0.70;;;36.50;36.40;;;;;;5092694;28;20177;-69
2022/08/01 08:20:16;;;;;;;0.60;0.50;;;36.80;37.00;;;;;;5093617;28;20173;-69
2022/08/01 08:22:41;;;;;;;0.60;0.57;;;36.80;36.00;;;;;;5092697;28;20177;-69
2022/08/01 08:25:08;;;;;;;0.63;0.50;;;37.10;35.60;;;;;;5093272;28;20431;-69
2022/08/01 08:27:34;;;;;;;1.13;0.60;;;37.30;35.60;;;;;;5093415;28;20218;-69
2022/08/01 08:30:00;;;;;;;0.70;0.70;;;37.40;34.70;;;;;;5093495;28;20403;-70
2022/08/01 08:32:26;;;;;;;0.50;0.50;;;36.90;34.90;;;;;;5093285;28;20411;-68
2022/08/01 08:34:51;;;;;;;0.77;0.77;;;36.80;36.10;;;;;;5093180;28;20268;-69
2022/08/01 08:37:17;;;;;;;0.60;0.57;;;37.30;35.00;;;;;;5093414;28;20621;-67
2022/08/01 08:39:43;;;;;;;0.97;0.90;;;37.00;34.40;;;;;;5093267;28;20187;-70
2022/08/01 08:42:10;;;;;;;0.70;0.70;;;36.30;35.60;;;;;;5075176;28;20173;-69
2022/08/01 08:44:38;;;;;;;0.93;0.70;;;36.00;35.50;;;;;;5093239;28;20454;-67
2022/08/01 08:47:05;;;;;;;0.70;0.70;;;35.70;36.30;;;;;;5093003;28;20955;-68
2022/08/01 08:49:32;;;;;;;0.70;0.67;;;36.10;35.50;;;;;;5093056;28;20449;-68
2022/08/01 08:51:59;;;;;;;1.00;0.70;;;36.30;36.20;;;;;;5093629;28;20409;-67
2022/08/01 08:54:27;;;;;;;0.50;0.50;;;36.20;35.20;;;;;;5097016;28;20445;-68
2022/08/01 08:56:54;;;;;;;0.60;0.50;;;36.40;35.20;;;;;;5096684;28;20410;-69
2022/08/01 08:59:20;;;;;;;0.90;0.90;;;36.50;35.40;;;;;;5096534;28;20414;-69
2022/08/01 09:01:46;;;;;;;0.67;0.67;;;37.30;34.40;;;;;;5097197;28;20410;-70
2022/08/01 09:04:12;;;;;;;0.83;0.50;;;37.30;33.70;;;;;;5078359;28;20466;-70
2022/08/01 09:06:38;;;;;;;0.50;0.47;;;37.60;33.40;;;;;;5096645;28;20454;-68
2022/08/01 09:09:04;;;;;;;0.80;0.53;;;37.10;33.60;;;;;;5096478;28;20411;-69
2022/08/01 09:11:30;;;;;;;0.40;0.40;;;37.30;34.10;;;;;;5096498;28;20411;-70
2022/08/01 09:14:07;;;;;;;0.60;0.60;;;37.80;33.40;;;;;;5096450;28;20792;-69
2022/08/01 09:16:34;;;;;;;0.70;0.70;;;38.00;32.80;;;;;;5096431;28;20960;-68
2022/08/01 09:19:18;;;;;;;1.00;0.70;;;38.10;32.50;;;;;;5096507;28;20407;-70
2022/08/01 09:21:55;;;;;;;0.57;0.57;;;38.40;33.00;;;;;;5096530;28;20497;-70
2022/08/01 09:24:21;;;;;;;0.50;0.50;;;39.00;31.60;;;;;;5096246;28;20427;-67
2022/08/01 09:26:48;;;;;;;0.50;0.50;;;38.10;32.40;;;;;;5096254;28;20451;-70
2022/08/01 09:29:39;;;;;;;0.60;0.60;;;37.60;33.50;;;;;;5096179;28;20218;-68
2022/08/01 09:32:05;;;;;;;0.50;0.40;;;37.60;33.30;;;;;;5093541;28;20419;-69
2022/08/01 09:34:32;;;;;;;0.70;0.50;;;36.60;32.00;;;;;;5096124;28;20426;-69
2022/08/01 09:36:59;;;;;;;0.70;0.60;;;36.30;33.50;;;;;;5096128;28;20403;-70
2022/08/01 09:39:28;;;;;;;0.90;0.77;;;37.00;32.30;;;;;;5096092;28;20426;-68
2022/08/01 09:41:56;;;;;;;0.40;0.30;;;37.30;32.70;;;;;;5096221;28;20435;-70
2022/08/01 09:44:43;;;;;;;0.53;0.53;;;37.50;30.30;;;;;;5096164;28;20899;-69
2022/08/01 09:47:10;;;;;;;0.40;0.40;;;38.10;31.30;;;;;;5096047;28;20564;-69
2022/08/01 09:49:38;;;;;;;0.33;0.30;;;38.40;29.50;;;;;;5095748;28;20427;-69
2022/08/01 09:52:11;;;;;;;0.40;0.30;;;38.40;29.40;;;;;;5096044;28;20777;-71
2022/08/01 09:54:36;;;;;;;0.40;0.40;;;38.80;30.00;;;;;;5095832;28;20450;-68
2022/08/01 09:57:17;;;;;;;0.40;0.37;;;37.70;29.70;;;;;;5095802;28;20895;-70
2022/08/01 09:59:44;;;;;;;0.63;0.63;;;37.60;28.60;;;;;;5077388;28;20180;-68
2022/08/01 10:02:26;;;;;;;0.40;0.40;;;37.30;29.60;;;;;;5095689;28;20410;-69
2022/08/01 10:04:52;;;;;;;0.40;0.40;;;37.50;28.60;;;;;;5094606;28;20442;-68
2022/08/01 10:07:18;;;;;;;0.40;0.40;;;37.30;30.40;;;;;;5095672;28;20854;-69
2022/08/01 10:09:45;;;;;;;0.40;0.40;;;37.20;29.90;;;;;;5095400;28;20410;-68
2022/08/01 10:12:14;;;;;;;0.50;0.50;;;37.00;30.30;;;;;;5095427;28;20395;-69
2022/08/01 10:14:40;;;;;;;0.60;0.50;;;36.80;28.10;;;;;;5095641;28;20472;-70
2022/08/01 10:17:11;;;;;;;0.43;0.43;;;35.60;29.10;;;;;;5095410;28;20411;-68
2022/08/01 10:19:41;;;;;;;0.60;0.40;;;35.70;30.20;;;;;;5095161;28;20410;-69
2022/08/01 10:22:08;;;;;;;0.50;0.33;;;36.00;31.80;;;;;;5095386;28;20403;-69
2022/08/01 10:24:40;;;;;;;0.50;0.50;;;36.60;30.40;;;;;;5095081;28;20491;-68
2022/08/01 10:27:08;;;;;;;0.70;0.40;;;36.30;31.60;;;;;;5095287;28;20455;-69
2022/08/01 10:29:49;;;;;;;0.47;0.47;;;36.20;31.60;;;;;;5094990;28;20917;-70
2022/08/01 10:32:16;;;;;;;0.40;0.40;;;35.90;31.60;;;;;;5095212;28;20433;-69
2022/08/01 10:34:41;;;;;;;0.50;0.50;;;35.90;33.40;;;;;;5094993;28;20898;-68
2022/08/01 10:37:07;;;;;;;0.40;0.40;;;36.20;31.70;;;;;;5094724;28;20421;-69
2022/08/01 10:39:34;;;;;;;0.30;0.30;;;34.50;31.40;;;;;;5094731;28;20401;-68
2022/08/01 10:42:00;;;;;;;0.40;0.40;;;34.10;34.10;;;;;;5094877;28;20403;-68
2022/08/01 10:44:29;;;;;;;0.60;0.60;;;32.90;33.60;;;;;;5094930;28;20434;-69
2022/08/01 10:47:01;;;;;;;0.40;0.40;;;32.90;35.50;;;;;;5094642;28;20985;-69
2022/08/01 10:49:30;;;;;;;0.60;0.50;;;33.00;35.00;;;;;;5094557;28;20453;-68
2022/08/01 10:51:56;;;;;;;0.40;0.40;;;33.20;36.90;;;;;;5094609;28;20996;-70
2022/08/01 10:54:25;;;;;;;0.43;0.43;;;33.40;34.30;;;;;;5094475;28;20429;-69
2022/08/01 10:56:52;;;;;;;0.40;0.40;;;33.70;36.20;;;;;;5094866;28;20409;-68
2022/08/01 10:59:27;;;;;;;0.40;0.40;;;33.60;34.30;;;;;;5094472;28;20431;-68
2022/08/01 11:01:58;;;;;;;0.40;0.30;;;33.50;34.20;;;;;;5094590;28;20417;-70
2022/08/01 11:04:38;;;;;;;1.63;0.70;;;33.10;33.90;;;;;;5094286;28;20450;-69
2022/08/01 11:07:07;;;;;;;0.77;0.50;;;32.60;34.10;;;;;;5094575;28;20515;-68
2022/08/01 11:10:04;;;;;;;0.60;0.60;;;32.20;35.50;;;;;;5094289;28;20442;-67
2022/08/01 11:12:40;;;;;;;0.40;0.30;;;31.90;37.30;;;;;;5094753;28;20419;-70
2022/08/01 11:15:07;;;;;;;0.60;0.57;;;31.90;37.60;;;;;;5094184;28;20465;-69
2022/08/01 11:17:35;;;;;;;1.07;0.50;;;31.90;37.70;;;;;;5094178;28;20410;-68
2022/08/01 11:20:09;;;;;;;0.40;0.40;;;31.90;38.20;;;;;;5094298;28;20948;-69
2022/08/01 11:22:59;;;;;;;0.50;0.40;;;31.90;38.80;;;;;;5094268;28;20437;-69
2022/08/01 11:25:47;;;;;;;0.60;0.53;;;31.70;37.80;;;;;;5093905;28;20468;-68
2022/08/01 11:28:16;;;;;;;0.43;0.43;;;31.10;37.60;;;;;;5083255;28;20462;-67
2022/08/01 11:30:47;;;;;;;0.50;0.50;;;31.10;38.80;;;;;;5094155;28;20451;-68
2022/08/01 11:33:14;;;;;;;0.60;0.50;;;31.20;38.70;;;;;;5094013;28;20403;-68
2022/08/01 11:36:15;;;;;;;0.63;0.47;;;30.90;37.80;;;;;;5094044;28;20421;-68
2022/08/01 11:38:44;;;;;;;0.57;0.50;;;30.90;37.90;;;;;;5093619;28;20409;-68
2022/08/01 11:41:17;;;;;;;0.80;0.60;;;30.80;37.80;;;;;;5094067;28;20399;-70
2022/08/01 11:43:58;;;;;;;0.47;0.47;;;30.60;38.70;;;;;;5093893;28;20504;-70
2022/08/01 11:46:58;;;;;;;0.40;0.40;;;30.70;40.70;;;;;;5094048;28;20405;-68
2022/08/01 11:49:47;;;;;;;1.70;0.47;;;30.70;39.50;;;;;;5093674;28;20767;-68
2022/08/01 11:52:28;;;;;;;0.57;0.43;;;30.50;41.00;;;;;;5093845;28;20430;-68
2022/08/01 11:55:05;;;;;;;0.40;0.40;;;30.30;38.20;;;;;;5093554;28;20446;-68
2022/08/01 11:57:37;;;;;;;0.43;0.43;;;30.30;38.00;;;;;;5093962;28;20399;-69
2022/08/01 12:00:18;;;;;;;0.83;0.50;;;30.40;38.00;;;;;;5093825;28;20395;-69
2022/08/01 12:02:45;;;;;;;0.50;0.40;;;30.40;36.60;;;;;;5093409;28;20806;-69
2022/08/01 12:05:14;;;;;;;0.40;0.40;;;30.40;37.40;;;;;;5093073;28;20830;-67
2022/08/01 12:07:41;;;;;;;0.40;0.40;;;30.40;38.50;;;;;;5093849;28;20450;-68
2022/08/01 12:10:08;;;;;;;0.50;0.50;;;30.50;38.90;;;;;;5093579;28;20460;-67
2022/08/01 12:12:36;;;;;;;0.40;0.30;;;30.80;37.60;;;;;;5093674;28;20407;-69
2022/08/01 12:15:05;;;;;;;0.40;0.40;;;30.30;37.10;;;;;;5093951;28;20834;-69
2022/08/01 12:17:33;;;;;;;0.67;0.40;;;30.20;38.20;;;;;;5093438;28;20438;-67
2022/08/01 12:20:00;;;;;;;0.30;0.30;;;30.10;38.20;;;;;;5093547;28;20430;-67
2022/08/01 12:22:26;;;;;;;0.40;0.40;;;29.90;37.40;;;;;;5093627;28;20406;-68
2022/08/01 12:24:52;;;;;;;0.50;0.50;;;29.80;38.40;;;;;;5093310;28;20445;-67
2022/08/01 12:27:28;;;;;;;0.50;0.40;;;29.40;37.10;;;;;;5095091;28;20449;-68
2022/08/01 12:29:55;;;;;;;0.73;0.50;;;29.40;38.60;;;;;;5097391;28;20173;-69
2022/08/01 12:32:24;;;;;;;0.50;0.50;;;29.60;40.10;;;;;;5097462;28;20413;-69
2022/08/01 12:34:51;;;;;;;0.80;0.60;;;29.50;39.30;;;;;;5097761;28;20426;-70
2022/08/01 12:37:18;;;;;;;0.40;0.40;;;29.60;39.70;;;;;;5097746;28;20406;-69
2022/08/01 12:39:45;;;;;;;0.40;0.40;;;29.60;39.60;;;;;;5079096;28;20414;-69
2022/08/01 12:42:11;;;;;;;0.77;0.60;;;29.70;40.30;;;;;;5097325;28;20403;-69
2022/08/01 12:44:39;;;;;;;0.60;0.60;;;29.70;39.20;;;;;;5097440;28;20434;-70
2022/08/01 12:47:08;;;;;;;0.40;0.40;;;29.90;39.40;;;;;;5097415;28;20449;-70
2022/08/01 12:49:37;;;;;;;0.40;0.40;;;29.80;39.30;;;;;;5097381;28;20411;-69
2022/08/01 12:52:04;;;;;;;0.53;0.50;;;29.40;38.10;;;;;;5097399;28;20402;-69
2022/08/01 12:54:30;;;;;;;0.50;0.50;;;29.30;37.60;;;;;;5096743;28;20985;-67
2022/08/01 12:56:56;;;;;;;0.50;0.50;;;29.40;38.50;;;;;;5097218;28;20402;-67